Time;durP1;ratioP1;P1;durP2;ratioP2;P2;SDS_P1;SDS_P2;PMS_P1;PMS_P2;Temp;Humidity;BMP_temperature;BMP_pressure;BME280_temperature;BME280_humidity;BME280_pressure;Samples;Min_cycle;Max_cycle;Signal;HPM_P1;HPM_P2
2023/06/09 00:01:44;;;;;;;6.32;4.45;;;25.00;99.90;;;;;;5029833;22;20506;-48
2023/06/09 00:04:12;;;;;;;6.90;4.28;;;25.00;99.90;;;;;;5035910;28;20105;-48
2023/06/09 00:06:39;;;;;;;6.32;4.15;;;24.90;99.90;;;;;;5035650;28;20389;-48
2023/06/09 00:09:06;;;;;;;7.13;4.23;;;25.00;99.90;;;;;;5035742;28;20025;-52
2023/06/09 00:11:33;;;;;;;7.60;4.20;;;25.00;99.90;;;;;;5035547;28;20030;-48
2023/06/09 00:13:59;;;;;;;6.65;3.75;;;25.00;99.90;;;;;;5035718;28;20385;-49
2023/06/09 00:16:25;;;;;;;7.95;4.13;;;24.90;99.90;;;;;;5036019;28;20030;-49
2023/06/09 00:18:52;;;;;;;6.18;4.20;;;25.00;99.90;;;;;;5035479;28;20401;-49
2023/06/09 00:21:21;;;;;;;7.00;3.75;;;24.90;99.90;;;;;;5035327;28;20167;-50
2023/06/09 00:23:48;;;;;;;6.80;4.18;;;25.00;99.90;;;;;;5035327;28;20079;-50
2023/06/09 00:26:15;;;;;;;4.90;3.72;;;24.90;99.90;;;;;;5035419;28;20026;-50
2023/06/09 00:28:43;;;;;;;6.68;4.05;;;24.90;99.90;;;;;;5033721;28;20390;-50
2023/06/09 00:31:09;;;;;;;5.38;3.95;;;24.90;99.90;;;;;;5035197;28;20171;-50
2023/06/09 00:33:34;;;;;;;6.35;3.88;;;25.00;99.90;;;;;;5035254;28;20044;-50
2023/06/09 00:36:00;;;;;;;6.88;4.20;;;25.00;99.90;;;;;;5035378;28;20075;-50
2023/06/09 00:38:26;;;;;;;6.43;3.85;;;25.00;99.90;;;;;;5034887;28;20105;-50
2023/06/09 00:40:52;;;;;;;5.78;4.32;;;25.00;99.90;;;;;;5035213;28;20053;-49
2023/06/09 00:43:18;;;;;;;4.50;3.72;;;24.90;99.90;;;;;;5034853;28;20052;-50
2023/06/09 00:45:44;;;;;;;5.63;3.70;;;25.00;99.90;;;;;;5035128;28;20022;-50
2023/06/09 00:48:11;;;;;;;6.03;4.05;;;25.00;99.90;;;;;;5034824;28;20428;-50
2023/06/09 00:50:38;;;;;;;5.68;3.65;;;25.00;99.90;;;;;;5034671;28;20060;-50
2023/06/09 00:53:04;;;;;;;5.80;3.92;;;25.00;99.90;;;;;;5034862;28;20363;-50
2023/06/09 00:55:33;;;;;;;6.13;3.67;;;25.00;99.90;;;;;;5034739;28;20026;-50
2023/06/09 00:58:00;;;;;;;4.78;3.63;;;25.00;99.90;;;;;;5034854;28;20026;-49
2023/06/09 01:00:28;;;;;;;6.65;3.80;;;25.00;99.90;;;;;;5046028;22;20005;-49
2023/06/09 01:03:02;;;;;;;5.35;3.70;;;25.00;99.90;;;;;;5037367;28;20034;-50
2023/06/09 01:05:39;;;;;;;7.45;3.78;;;25.00;99.90;;;;;;5032677;28;20018;-50
2023/06/09 01:08:13;;;;;;;6.13;3.63;;;25.00;99.90;;;;;;5034761;28;20037;-50
2023/06/09 01:11:00;;;;;;;4.80;3.22;;;25.00;99.90;;;;;;5034352;28;20026;-50
2023/06/09 01:13:51;;;;;;;4.10;3.13;;;25.00;99.90;;;;;;5033091;28;20113;-50
2023/06/09 01:16:30;;;;;;;6.68;3.95;;;25.00;99.90;;;;;;5034606;28;20071;-50
2023/06/09 01:19:00;;;;;;;5.40;3.85;;;25.00;99.90;;;;;;5034081;28;20025;-50
2023/06/09 01:21:41;;;;;;;5.90;3.42;;;25.00;99.90;;;;;;5032817;28;20462;-50
2023/06/09 01:24:48;;;;;;;3.33;3.03;;;24.90;99.90;;;;;;5021687;28;20029;-50
2023/06/09 01:27:17;;;;;;;4.82;3.47;;;24.90;99.90;;;;;;5025486;28;20088;-50
2023/06/09 01:29:44;;;;;;;4.88;3.42;;;24.90;99.90;;;;;;5034285;28;20116;-51
2023/06/09 01:32:13;;;;;;;5.85;3.45;;;25.00;99.90;;;;;;5034408;28;20022;-50
2023/06/09 01:34:39;;;;;;;6.07;3.13;;;24.90;99.90;;;;;;5034107;28;20029;-50
2023/06/09 01:37:06;;;;;;;4.15;3.35;;;25.00;99.90;;;;;;5034048;28;20021;-50
2023/06/09 01:39:32;;;;;;;4.47;3.45;;;24.90;99.90;;;;;;5033791;28;20022;-50
2023/06/09 01:41:58;;;;;;;3.95;3.42;;;24.90;99.90;;;;;;5033968;28;20359;-50
2023/06/09 01:44:24;;;;;;;6.88;3.65;;;24.90;99.90;;;;;;5016017;28;20059;-50
2023/06/09 01:46:50;;;;;;;4.18;3.55;;;24.90;99.90;;;;;;5033611;28;20068;-49
2023/06/09 01:49:31;;;;;;;6.13;3.45;;;25.00;99.90;;;;;;5033846;28;20072;-50
2023/06/09 01:52:07;;;;;;;5.18;3.60;;;24.90;99.90;;;;;;5033611;28;20462;-50
2023/06/09 01:54:55;;;;;;;5.78;3.30;;;24.90;99.90;;;;;;5033797;28;20053;-50
2023/06/09 01:57:38;;;;;;;4.38;3.92;;;24.90;99.90;;;;;;5033561;28;20049;-50
2023/06/09 02:00:06;;;;;;;4.30;3.20;;;24.90;99.90;;;;;;5033944;28;20025;-51
2023/06/09 02:02:33;;;;;;;5.72;3.45;;;24.90;99.90;;;;;;5033698;28;20476;-49
2023/06/09 02:05:03;;;;;;;6.05;3.40;;;24.90;99.90;;;;;;5033348;28;20033;-49
2023/06/09 02:07:30;;;;;;;4.55;2.92;;;24.90;99.90;;;;;;5032172;28;20030;-49
2023/06/09 02:09:56;;;;;;;4.82;3.10;;;24.90;99.90;;;;;;5033407;28;20497;-49
2023/06/09 02:12:22;;;;;;;6.45;3.13;;;24.90;99.90;;;;;;5033403;28;20057;-48
2023/06/09 02:14:48;;;;;;;5.43;3.20;;;24.90;99.90;;;;;;5033553;28;20026;-49
2023/06/09 02:17:15;;;;;;;6.30;3.53;;;24.90;99.90;;;;;;5033336;28;20029;-49
2023/06/09 02:19:41;;;;;;;4.23;3.07;;;24.90;99.90;;;;;;5033638;28;20014;-49
2023/06/09 02:22:07;;;;;;;4.63;3.28;;;24.90;99.90;;;;;;5033137;28;20277;-49
2023/06/09 02:24:34;;;;;;;4.07;2.90;;;24.90;99.90;;;;;;5033193;28;20021;-50
2023/06/09 02:27:02;;;;;;;5.25;3.03;;;24.90;99.90;;;;;;5033273;28;20112;-50
2023/06/09 02:29:29;;;;;;;4.47;3.28;;;24.90;99.90;;;;;;5033293;28;20081;-50
2023/06/09 02:31:55;;;;;;;3.28;2.67;;;24.90;99.90;;;;;;5031344;28;20038;-49
2023/06/09 02:34:25;;;;;;;6.35;3.10;;;24.90;99.90;;;;;;5032970;28;20025;-49
2023/06/09 02:36:52;;;;;;;3.17;2.80;;;24.90;99.90;;;;;;5032866;28;20106;-48
2023/06/09 02:39:22;;;;;;;5.25;2.75;;;24.90;99.90;;;;;;5032950;28;20063;-48
2023/06/09 02:41:48;;;;;;;3.67;2.65;;;24.90;99.90;;;;;;5031442;28;20052;-51
2023/06/09 02:44:14;;;;;;;6.60;2.78;;;24.90;99.90;;;;;;5033322;28;20034;-49
2023/06/09 02:46:40;;;;;;;5.93;3.42;;;24.90;99.90;;;;;;5032439;28;20520;-48
2023/06/09 02:49:06;;;;;;;5.53;2.58;;;24.90;99.90;;;;;;5032925;28;20080;-49
2023/06/09 02:51:32;;;;;;;4.95;2.90;;;24.90;99.90;;;;;;5032232;28;20437;-48
2023/06/09 02:53:58;;;;;;;4.00;2.92;;;24.90;99.90;;;;;;5032853;28;20469;-48
2023/06/09 02:56:25;;;;;;;4.85;2.53;;;24.90;99.90;;;;;;5033017;28;20497;-50
2023/06/09 02:58:51;;;;;;;4.80;3.20;;;24.90;99.90;;;;;;5032697;28;20366;-48
2023/06/09 03:01:17;;;;;;;6.07;2.67;;;24.90;99.90;;;;;;5045288;22;20058;-60
2023/06/09 03:03:49;;;;;;;4.65;3.63;;;24.90;99.90;;;;;;5032698;28;20053;-60
2023/06/09 03:06:16;;;;;;;4.22;2.75;;;24.90;99.90;;;;;;5032826;28;20021;-61
2023/06/09 03:08:43;;;;;;;4.25;2.90;;;24.90;99.90;;;;;;5032577;28;20028;-60
2023/06/09 03:11:10;;;;;;;3.60;2.65;;;24.90;99.90;;;;;;5031378;28;20065;-60
2023/06/09 03:13:35;;;;;;;5.00;3.00;;;24.90;99.90;;;;;;5032629;28;20029;-60
2023/06/09 03:16:04;;;;;;;4.53;2.95;;;24.80;99.90;;;;;;5032852;28;20470;-60
2023/06/09 03:18:31;;;;;;;4.13;3.08;;;24.80;99.90;;;;;;5031282;28;20061;-60
2023/06/09 03:21:01;;;;;;;3.85;2.75;;;24.80;99.90;;;;;;5032606;28;20041;-60
2023/06/09 03:23:28;;;;;;;4.28;2.78;;;24.80;99.90;;;;;;5032478;28;20021;-60
2023/06/09 03:25:54;;;;;;;4.93;3.10;;;24.80;99.90;;;;;;5032360;28;20029;-60
2023/06/09 03:28:20;;;;;;;3.15;2.78;;;24.80;99.90;;;;;;5032881;28;20060;-59
2023/06/09 03:30:46;;;;;;;3.38;2.55;;;24.80;99.90;;;;;;5032686;28;20032;-60
2023/06/09 03:33:12;;;;;;;4.68;3.00;;;24.80;99.90;;;;;;5032375;28;20056;-59
2023/06/09 03:35:37;;;;;;;4.30;3.08;;;24.80;99.90;;;;;;5032676;28;20057;-59
2023/06/09 03:38:03;;;;;;;3.88;2.60;;;24.80;99.90;;;;;;5032519;28;20026;-60
2023/06/09 03:40:29;;;;;;;4.40;2.88;;;24.80;99.90;;;;;;5032504;28;20036;-59
2023/06/09 03:42:55;;;;;;;4.95;2.58;;;24.90;99.90;;;;;;5032397;28;20025;-59
2023/06/09 03:45:20;;;;;;;4.57;2.63;;;24.80;99.90;;;;;;5032450;28;20109;-59
2023/06/09 03:47:46;;;;;;;4.53;3.05;;;24.80;99.90;;;;;;5032559;28;20049;-59
2023/06/09 03:50:12;;;;;;;4.05;2.95;;;24.90;99.90;;;;;;5032149;28;20465;-59
2023/06/09 03:52:38;;;;;;;4.53;2.90;;;24.80;99.90;;;;;;5032277;28;20108;-59
2023/06/09 03:55:04;;;;;;;4.15;2.50;;;24.80;99.90;;;;;;5032416;28;20053;-61
2023/06/09 03:57:30;;;;;;;4.30;2.80;;;24.80;99.90;;;;;;5032311;28;20064;-60
2023/06/09 03:59:56;;;;;;;3.60;2.75;;;24.80;99.90;;;;;;5032050;28;20053;-59
2023/06/09 04:02:21;;;;;;;3.72;2.38;;;24.80;99.90;;;;;;5031230;28;20522;-59
2023/06/09 04:04:47;;;;;;;5.03;2.72;;;24.80;99.90;;;;;;5035682;28;20028;-59
2023/06/09 04:07:14;;;;;;;3.42;2.70;;;24.80;99.90;;;;;;5035381;28;20382;-60
2023/06/09 04:09:40;;;;;;;4.70;2.55;;;24.80;99.90;;;;;;5036809;28;20039;-59
2023/06/09 04:12:06;;;;;;;2.67;2.40;;;24.80;99.90;;;;;;5033920;28;20056;-62
2023/06/09 04:14:32;;;;;;;3.92;2.65;;;24.80;99.90;;;;;;5035045;28;20021;-63
2023/06/09 04:16:58;;;;;;;5.32;3.60;;;24.80;99.90;;;;;;5035282;28;20496;-64
2023/06/09 04:19:24;;;;;;;4.07;2.80;;;24.80;99.90;;;;;;5034556;28;20032;-62
2023/06/09 04:21:50;;;;;;;6.22;2.75;;;24.80;99.90;;;;;;5035508;28;20119;-60
2023/06/09 04:24:15;;;;;;;7.75;3.40;;;24.80;99.90;;;;;;5034938;28;20029;-61
2023/06/09 04:26:43;;;;;;;5.53;3.17;;;24.80;99.90;;;;;;5034645;28;20486;-61
2023/06/09 04:29:10;;;;;;;4.00;2.80;;;24.80;99.90;;;;;;5035298;28;20025;-61
2023/06/09 04:31:42;;;;;;;6.73;2.90;;;24.80;99.90;;;;;;5034553;28;20034;-62
2023/06/09 04:34:12;;;;;;;6.63;2.92;;;24.80;99.90;;;;;;5035247;28;20622;-62
2023/06/09 04:36:39;;;;;;;11.00;4.30;;;24.80;99.90;;;;;;5034671;28;20032;-58
2023/06/09 04:39:07;;;;;;;11.90;5.18;;;24.80;99.90;;;;;;5035238;28;20427;-58
2023/06/09 04:41:33;;;;;;;13.52;4.88;;;24.70;99.90;;;;;;5034877;28;20486;-57
2023/06/09 04:44:05;;;;;;;11.77;4.25;;;24.70;99.90;;;;;;5034982;28;20386;-57
2023/06/09 04:46:37;;;;;;;8.38;4.55;;;24.60;99.90;;;;;;5034533;28;20048;-57
2023/06/09 04:49:09;;;;;;;18.23;6.63;;;24.60;99.90;;;;;;5032714;28;20029;-59
2023/06/09 04:51:41;;;;;;;7.85;4.22;;;24.50;99.90;;;;;;5034338;28;20034;-59
2023/06/09 04:54:08;;;;;;;10.68;4.72;;;24.50;99.90;;;;;;5035020;28;20045;-59
2023/06/09 04:56:36;;;;;;;11.68;5.20;;;24.40;99.90;;;;;;5034662;28;20105;-59
2023/06/09 04:59:03;;;;;;;13.70;4.90;;;24.40;99.90;;;;;;5032908;28;20057;-61
2023/06/09 05:01:29;;;;;;;11.15;4.80;;;24.30;99.90;;;;;;5033060;28;20045;-60
2023/06/09 05:03:56;;;;;;;6.82;3.53;;;24.30;99.90;;;;;;5034385;28;20047;-60
2023/06/09 05:06:22;;;;;;;7.28;3.45;;;24.30;99.90;;;;;;5034869;28;20433;-60
2023/06/09 05:08:50;;;;;;;6.70;3.15;;;24.30;99.90;;;;;;5034437;28;20104;-60
2023/06/09 05:11:16;;;;;;;9.50;4.07;;;24.40;99.90;;;;;;5034631;28;20033;-60
2023/06/09 05:13:42;;;;;;;8.88;3.40;;;24.40;99.90;;;;;;5033702;28;20022;-60
2023/06/09 05:16:08;;;;;;;10.52;4.93;;;24.40;99.90;;;;;;5032987;28;20029;-60
2023/06/09 05:18:33;;;;;;;8.07;4.15;;;24.40;99.90;;;;;;5034409;28;20398;-60
2023/06/09 05:20:59;;;;;;;7.22;3.35;;;24.40;99.90;;;;;;5034370;28;20492;-61
2023/06/09 05:23:25;;;;;;;11.07;3.75;;;24.40;99.90;;;;;;5033338;28;20045;-60
2023/06/09 05:25:51;;;;;;;8.20;3.55;;;24.40;99.90;;;;;;5034203;28;20032;-60
2023/06/09 05:28:16;;;;;;;6.55;3.58;;;24.50;99.90;;;;;;5034473;28;20056;-60
2023/06/09 05:30:42;;;;;;;7.57;3.90;;;24.50;99.90;;;;;;5033879;28;20041;-60
2023/06/09 05:33:08;;;;;;;5.43;3.35;;;24.50;99.90;;;;;;5034254;28;20013;-59
2023/06/09 05:35:34;;;;;;;8.63;3.50;;;24.50;99.90;;;;;;5033955;28;20021;-60
2023/06/09 05:37:59;;;;;;;6.88;4.15;;;24.50;99.90;;;;;;5034084;28;20021;-60
2023/06/09 05:40:25;;;;;;;6.68;3.15;;;24.50;99.90;;;;;;5032501;28;20049;-60
2023/06/09 05:42:51;;;;;;;7.10;3.38;;;24.50;99.90;;;;;;5032807;28;20517;-59
2023/06/09 05:45:17;;;;;;;8.35;3.42;;;24.50;99.90;;;;;;5033792;28;20394;-59
2023/06/09 05:47:43;;;;;;;7.57;3.30;;;24.50;99.90;;;;;;5033507;28;20029;-60
2023/06/09 05:50:09;;;;;;;6.47;3.47;;;24.50;99.90;;;;;;5032568;28;20171;-60
2023/06/09 05:52:35;;;;;;;5.47;3.15;;;24.50;99.90;;;;;;5033634;28;20437;-61
2023/06/09 05:55:01;;;;;;;6.97;3.55;;;24.60;99.90;;;;;;5033560;28;20037;-60
2023/06/09 05:57:29;;;;;;;6.53;2.92;;;24.50;99.90;;;;;;5032120;28;20049;-60
2023/06/09 05:59:56;;;;;;;4.90;3.03;;;24.60;99.90;;;;;;5033291;28;20029;-60
2023/06/09 06:02:23;;;;;;;6.80;3.10;;;24.60;99.90;;;;;;5033228;28;20041;-60
2023/06/09 06:04:49;;;;;;;5.05;3.17;;;24.60;99.90;;;;;;5033449;28;20038;-59
2023/06/09 06:07:16;;;;;;;5.18;2.83;;;24.60;99.90;;;;;;5033414;28;20322;-59
2023/06/09 06:09:42;;;;;;;8.15;3.35;;;24.60;99.90;;;;;;5033292;28;20021;-60
2023/06/09 06:12:08;;;;;;;6.55;3.38;;;24.60;99.90;;;;;;5033063;28;20128;-60
2023/06/09 06:14:34;;;;;;;6.25;3.28;;;24.60;99.90;;;;;;5032105;28;20022;-60
2023/06/09 06:17:00;;;;;;;8.95;3.08;;;24.60;99.90;;;;;;5033088;28;20029;-60
2023/06/09 06:19:25;;;;;;;6.40;2.85;;;24.60;99.90;;;;;;5033195;28;20021;-60
2023/06/09 06:21:51;;;;;;;9.68;3.22;;;24.60;99.90;;;;;;5033185;28;20041;-59
2023/06/09 06:24:17;;;;;;;10.10;3.35;;;24.60;99.90;;;;;;5032562;28;20485;-59
2023/06/09 06:26:43;;;;;;;8.52;3.00;;;24.60;99.90;;;;;;5033087;28;20100;-59
2023/06/09 06:29:09;;;;;;;4.20;3.00;;;24.60;99.90;;;;;;5032821;28;20056;-60
2023/06/09 06:31:34;;;;;;;6.25;2.95;;;24.60;99.90;;;;;;5032981;28;20029;-59
2023/06/09 06:34:00;;;;;;;7.47;3.75;;;24.60;99.90;;;;;;5032669;28;20100;-60
2023/06/09 06:36:26;;;;;;;8.20;2.75;;;24.60;99.90;;;;;;5033066;28;20526;-60
2023/06/09 06:38:52;;;;;;;5.50;3.03;;;24.60;99.90;;;;;;5032508;28;20014;-60
2023/06/09 06:41:18;;;;;;;7.70;2.92;;;24.60;99.90;;;;;;5032948;28;20151;-60
2023/06/09 06:43:44;;;;;;;6.32;2.70;;;24.60;99.90;;;;;;5032394;28;20049;-60
2023/06/09 06:46:11;;;;;;;5.43;2.75;;;24.60;99.90;;;;;;5032822;28;20030;-60
2023/06/09 06:48:38;;;;;;;6.97;2.80;;;24.60;99.90;;;;;;5032826;28;20021;-61
2023/06/09 06:51:07;;;;;;;3.60;2.38;;;24.60;99.90;;;;;;5032690;28;20021;-60
2023/06/09 06:53:35;;;;;;;4.50;2.58;;;24.60;99.90;;;;;;5032901;28;20075;-60
2023/06/09 06:56:01;;;;;;;6.97;2.30;;;24.60;99.90;;;;;;5032845;28;20049;-62
2023/06/09 06:58:28;;;;;;;6.90;2.92;;;24.60;99.90;;;;;;5032703;28;20482;-61
2023/06/09 07:00:56;;;;;;;6.07;2.40;;;24.60;99.90;;;;;;5032581;28;20045;-60
2023/06/09 07:03:24;;;;;;;6.07;2.63;;;24.60;99.90;;;;;;5032699;28;20478;-60
2023/06/09 07:05:50;;;;;;;6.53;2.40;;;24.60;99.90;;;;;;5032747;28;20041;-60
2023/06/09 07:08:17;;;;;;;4.68;2.42;;;24.60;99.90;;;;;;5032652;28;20481;-60
2023/06/09 07:10:43;;;;;;;4.35;2.72;;;24.60;99.90;;;;;;5032349;28;20033;-60
2023/06/09 07:13:09;;;;;;;7.95;2.70;;;24.70;99.90;;;;;;5032830;28;20021;-60
2023/06/09 07:15:36;;;;;;;5.53;2.50;;;24.60;99.90;;;;;;5031183;28;20021;-60
2023/06/09 07:18:05;;;;;;;5.13;2.10;;;24.60;99.90;;;;;;5032557;28;20079;-60
2023/06/09 07:20:31;;;;;;;7.60;2.42;;;24.70;99.90;;;;;;5032472;28;20025;-61
2023/06/09 07:22:57;;;;;;;5.30;2.47;;;24.60;99.90;;;;;;5032486;28;20022;-61
2023/06/09 07:25:22;;;;;;;7.85;2.50;;;24.60;99.90;;;;;;5032345;28;20026;-60
2023/06/09 07:27:48;;;;;;;3.67;2.25;;;24.70;99.90;;;;;;5032448;28;20025;-60
2023/06/09 07:30:14;;;;;;;3.78;1.80;;;24.70;99.90;;;;;;5032356;28;20043;-59
2023/06/09 07:32:40;;;;;;;5.25;2.40;;;24.70;99.90;;;;;;5032395;28;20485;-61
2023/06/09 07:35:07;;;;;;;3.38;2.50;;;24.70;99.90;;;;;;5032572;28;20018;-60
2023/06/09 07:37:36;;;;;;;4.93;2.30;;;24.70;99.90;;;;;;5035233;28;20557;-61
2023/06/09 07:40:04;;;;;;;5.10;2.05;;;24.70;99.90;;;;;;5036299;28;20269;-60
2023/06/09 07:42:30;;;;;;;4.72;1.80;;;24.70;99.90;;;;;;5036101;28;20182;-61
2023/06/09 07:44:55;;;;;;;3.38;1.70;;;24.70;99.90;;;;;;5035977;28;20448;-60
2023/06/09 07:47:21;;;;;;;4.75;2.15;;;24.70;99.90;;;;;;5035960;28;20025;-60
2023/06/09 07:49:47;;;;;;;3.45;2.00;;;24.70;99.90;;;;;;5036020;28;20021;-60
2023/06/09 07:52:12;;;;;;;3.20;1.90;;;24.70;99.90;;;;;;5035615;28;20046;-60
2023/06/09 07:54:38;;;;;;;5.50;1.90;;;24.70;99.90;;;;;;5036173;28;20470;-61
2023/06/09 07:57:04;;;;;;;3.65;1.80;;;24.70;99.90;;;;;;5035919;28;20029;-61
2023/06/09 07:59:30;;;;;;;6.68;2.33;;;24.70;99.90;;;;;;5035785;28;20021;-62
2023/06/09 08:01:56;;;;;;;5.50;2.30;;;24.70;99.90;;;;;;5035599;28;20125;-61
2023/06/09 08:04:21;;;;;;;3.70;1.73;;;24.70;99.90;;;;;;5035419;28;20069;-60
2023/06/09 08:06:48;;;;;;;3.42;1.75;;;24.80;99.90;;;;;;5035696;28;20506;-60
2023/06/09 08:09:14;;;;;;;3.28;1.60;;;24.70;99.90;;;;;;5035444;28;20478;-59
2023/06/09 08:11:40;;;;;;;3.08;1.40;;;24.70;99.90;;;;;;5035577;28;20048;-57
2023/06/09 08:14:06;;;;;;;5.53;1.65;;;24.80;99.90;;;;;;5035700;28;20443;-60
2023/06/09 08:16:32;;;;;;;2.65;1.58;;;24.80;99.90;;;;;;5035682;28;20025;-59
2023/06/09 08:18:58;;;;;;;3.72;1.70;;;24.80;99.90;;;;;;5035285;28;20331;-59
2023/06/09 08:21:24;;;;;;;4.22;1.70;;;24.80;99.90;;;;;;5035525;28;20072;-59
2023/06/09 08:23:50;;;;;;;3.90;1.92;;;24.80;99.90;;;;;;5035307;28;20407;-60
2023/06/09 08:26:16;;;;;;;4.45;1.65;;;24.80;99.90;;;;;;5033827;28;20116;-60
2023/06/09 08:28:42;;;;;;;4.03;2.05;;;24.80;99.90;;;;;;5034987;28;20434;-61
2023/06/09 08:31:08;;;;;;;4.97;1.98;;;24.80;99.90;;;;;;5033606;28;20030;-61
2023/06/09 08:33:35;;;;;;;4.55;1.80;;;24.80;99.90;;;;;;5033214;28;20029;-61
2023/06/09 08:36:04;;;;;;;4.27;2.00;;;24.80;99.90;;;;;;5033896;28;20021;-61
2023/06/09 08:38:34;;;;;;;6.90;2.22;;;24.80;99.90;;;;;;5034829;28;20115;-61
2023/06/09 08:41:10;;;;;;;6.68;2.25;;;24.90;99.90;;;;;;5035122;28;20021;-61
2023/06/09 08:43:37;;;;;;;4.40;1.70;;;24.80;99.90;;;;;;5034743;28;20036;-60
2023/06/09 08:46:05;;;;;;;3.72;2.22;;;24.80;99.90;;;;;;5034838;28;20500;-61
2023/06/09 08:48:33;;;;;;;4.55;2.10;;;24.80;99.90;;;;;;5033661;28;20029;-60
2023/06/09 08:51:00;;;;;;;5.15;1.90;;;24.80;99.90;;;;;;5034952;28;20113;-60
2023/06/09 08:53:26;;;;;;;5.55;2.10;;;24.80;99.90;;;;;;5035002;28;20029;-59
2023/06/09 08:55:53;;;;;;;8.70;2.03;;;24.90;99.90;;;;;;5034813;28;20026;-59
2023/06/09 08:58:19;;;;;;;;;;;24.90;99.90;;;;;;5035070;28;20117;-61
2023/06/09 09:00:48;;;;;;;3.78;1.83;;;24.90;99.90;;;;;;5034553;28;19928;-60
2023/06/09 09:03:14;;;;;;;6.72;2.58;;;24.90;99.90;;;;;;5033564;28;20021;-60
2023/06/09 09:05:40;;;;;;;5.40;2.00;;;24.90;99.90;;;;;;5034785;28;20363;-60
2023/06/09 09:08:05;;;;;;;4.57;2.17;;;24.90;99.90;;;;;;5017004;28;20104;-61
2023/06/09 09:10:31;;;;;;;9.48;2.53;;;24.90;99.90;;;;;;5034408;28;20393;-60
2023/06/09 09:12:59;;;;;;;6.07;2.15;;;24.90;99.90;;;;;;5034499;28;20485;-60
2023/06/09 09:15:27;;;;;;;4.38;2.25;;;24.90;99.90;;;;;;5034355;28;20017;-61
2023/06/09 09:17:53;;;;;;;6.55;2.13;;;24.90;99.90;;;;;;5033111;28;20026;-60
2023/06/09 09:20:19;;;;;;;11.68;2.63;;;25.00;99.90;;;;;;5034190;28;20025;-62
2023/06/09 09:22:49;;;;;;;6.53;2.30;;;25.00;99.90;;;;;;5034319;28;20514;-60
2023/06/09 09:25:26;;;;;;;7.85;2.53;;;25.00;99.90;;;;;;5034233;28;20108;-60
2023/06/09 09:28:03;;;;;;;5.25;2.60;;;25.00;99.90;;;;;;5034158;28;20022;-61
2023/06/09 09:30:45;;;;;;;;;;;25.00;99.90;;;;;;5034113;28;20041;-60
2023/06/09 09:33:20;;;;;;;18.45;3.20;;;25.00;99.90;;;;;;5033818;28;19905;-60
2023/06/09 09:35:52;;;;;;;6.00;2.80;;;25.00;99.90;;;;;;5034006;28;20018;-61
2023/06/09 09:38:21;;;;;;;3.75;2.53;;;25.00;99.90;;;;;;5033806;28;20018;-60
2023/06/09 09:40:52;;;;;;;11.57;3.60;;;25.00;99.90;;;;;;5034010;28;20022;-60
2023/06/09 09:43:19;;;;;;;8.27;3.42;;;25.00;99.90;;;;;;5033995;28;20373;-60
2023/06/09 09:45:48;;;;;;;8.35;3.95;;;25.00;99.90;;;;;;5033771;28;20026;-62
2023/06/09 09:48:16;;;;;;;8.35;3.80;;;25.00;99.90;;;;;;5033920;28;20474;-61
2023/06/09 09:50:44;;;;;;;5.07;3.13;;;25.00;99.90;;;;;;5033490;28;20359;-61
2023/06/09 09:53:10;;;;;;;12.73;4.43;;;25.00;99.90;;;;;;5033833;28;20029;-61
2023/06/09 09:55:42;;;;;;;6.97;3.40;;;25.00;99.90;;;;;;5033550;28;20024;-60
2023/06/09 09:58:09;;;;;;;8.25;3.50;;;25.00;99.90;;;;;;5033587;28;20067;-60
2023/06/09 10:00:38;;;;;;;8.23;3.50;;;25.00;99.90;;;;;;5031511;28;20048;-61
2023/06/09 10:03:15;;;;;;;6.30;4.03;;;25.00;99.90;;;;;;5033507;28;20025;-60
2023/06/09 10:05:45;;;;;;;8.90;3.65;;;25.00;99.90;;;;;;5032951;28;20373;-61
2023/06/09 10:08:22;;;;;;;9.88;3.63;;;25.00;99.90;;;;;;5033565;28;20029;-60
2023/06/09 10:10:50;;;;;;;8.18;3.60;;;25.00;99.90;;;;;;5033370;28;20079;-61
2023/06/09 10:13:17;;;;;;;11.88;3.88;;;25.00;99.90;;;;;;5033293;28;20032;-61
2023/06/09 10:15:45;;;;;;;9.70;3.85;;;25.00;99.90;;;;;;5033074;28;20082;-59
2023/06/09 10:18:12;;;;;;;10.88;4.15;;;25.00;99.90;;;;;;5033497;28;20021;-60
2023/06/09 10:20:41;;;;;;;9.18;3.80;;;25.10;99.90;;;;;;5033198;28;20017;-60
2023/06/09 10:23:07;;;;;;;7.30;3.95;;;25.10;99.90;;;;;;5033152;28;20360;-60
2023/06/09 10:25:33;;;;;;;8.80;4.28;;;25.10;99.90;;;;;;5033008;28;20017;-60
2023/06/09 10:27:59;;;;;;;9.93;3.60;;;25.10;99.90;;;;;;5033056;28;20017;-60
2023/06/09 10:30:25;;;;;;;10.10;3.63;;;25.10;99.90;;;;;;5032593;28;20065;-60
2023/06/09 10:32:58;;;;;;;7.63;3.45;;;25.10;99.90;;;;;;5032937;28;20075;-59
2023/06/09 10:35:27;;;;;;;10.35;3.53;;;25.10;99.90;;;;;;5033150;28;20014;-59
2023/06/09 10:37:54;;;;;;;12.68;4.22;;;25.10;99.90;;;;;;5033587;28;20413;-60
2023/06/09 10:40:42;;;;;;;10.27;3.53;;;25.10;99.90;;;;;;5031736;28;20049;-59
2023/06/09 10:43:44;;;;;;;5.55;3.10;;;25.10;99.90;;;;;;5032598;28;20064;-59
2023/06/09 10:46:12;;;;;;;5.70;3.33;;;25.10;99.90;;;;;;5032578;28;20029;-59
2023/06/09 10:48:51;;;;;;;7.88;3.83;;;25.10;99.90;;;;;;5032783;28;20033;-59
2023/06/09 10:51:26;;;;;;;10.07;4.63;;;25.10;99.90;;;;;;5021002;28;20497;-59
2023/06/09 10:54:22;;;;;;;8.25;3.72;;;25.10;99.90;;;;;;5032804;28;20052;-59
2023/06/09 10:57:06;;;;;;;7.80;3.70;;;25.20;99.90;;;;;;5024046;28;20450;-59
2023/06/09 10:59:32;;;;;;;6.13;2.92;;;25.10;99.90;;;;;;5021973;28;20029;-60
2023/06/09 11:02:01;;;;;;;7.88;3.60;;;25.10;99.90;;;;;;5032536;28;20045;-60
2023/06/09 11:04:44;;;;;;;6.68;3.13;;;25.20;99.90;;;;;;5032733;28;20025;-59
2023/06/09 11:07:13;;;;;;;7.78;2.72;;;25.20;99.90;;;;;;5032582;28;20025;-59
2023/06/09 11:09:40;;;;;;;6.88;3.65;;;25.20;99.90;;;;;;5032649;28;20469;-60
2023/06/09 11:12:08;;;;;;;6.72;3.47;;;25.20;99.90;;;;;;5034783;28;20048;-59
2023/06/09 11:14:46;;;;;;;;;;;25.20;99.90;;;;;;5037119;28;20405;-60
2023/06/09 11:17:25;;;;;;;10.23;4.70;;;25.20;99.90;;;;;;5036614;28;20353;-59
2023/06/09 11:20:10;;;;;;;7.95;3.95;;;25.20;99.90;;;;;;5036596;28;20116;-60
2023/06/09 11:22:41;;;;;;;10.70;4.53;;;25.20;99.90;;;;;;5036551;28;20033;-60
2023/06/09 11:25:19;;;;;;;8.60;3.90;;;25.30;99.90;;;;;;5036685;28;20025;-60
2023/06/09 11:28:09;;;;;;;8.45;3.97;;;25.30;99.90;;;;;;5036347;28;20041;-59
2023/06/09 11:30:59;;;;;;;9.02;3.70;;;25.30;99.90;;;;;;5036066;28;20036;-59
2023/06/09 11:33:47;;;;;;;8.18;3.80;;;25.30;99.90;;;;;;5036321;28;20429;-60
2023/06/09 11:36:25;;;;;;;9.88;4.20;;;25.30;99.90;;;;;;5036364;28;20055;-60
2023/06/09 11:38:52;;;;;;;10.90;5.47;;;25.30;99.90;;;;;;5036027;28;20113;-59
2023/06/09 11:41:22;;;;;;;8.97;5.00;;;25.30;99.90;;;;;;5036211;28;20017;-59
2023/06/09 11:43:52;;;;;;;11.32;4.93;;;25.30;99.90;;;;;;5036171;28;20029;-59
2023/06/09 11:46:19;;;;;;;8.15;4.35;;;25.30;99.90;;;;;;5036034;28;20082;-59
2023/06/09 11:49:03;;;;;;;10.07;4.68;;;25.40;99.90;;;;;;5034803;28;20112;-58
2023/06/09 11:51:29;;;;;;;8.60;4.85;;;25.40;99.90;;;;;;5034775;28;20132;-59
2023/06/09 11:53:54;;;;;;;8.60;4.68;;;25.40;99.90;;;;;;5035807;28;20351;-58
2023/06/09 11:56:21;;;;;;;11.27;4.40;;;25.40;99.90;;;;;;5034790;28;20027;-59
2023/06/09 11:58:51;;;;;;;10.82;5.15;;;25.40;99.90;;;;;;5035755;28;20478;-59
2023/06/09 12:01:19;;;;;;;10.30;4.45;;;25.40;99.90;;;;;;5035742;28;20073;-59
2023/06/09 12:03:45;;;;;;;10.40;5.10;;;25.40;99.90;;;;;;5035598;28;20026;-59
2023/06/09 12:06:16;;;;;;;8.38;5.13;;;25.40;99.90;;;;;;5034541;28;20021;-58
2023/06/09 12:08:42;;;;;;;11.63;5.28;;;25.40;99.90;;;;;;5035528;28;20446;-59
2023/06/09 12:11:16;;;;;;;10.00;5.45;;;25.40;99.90;;;;;;5035648;28;20072;-59
2023/06/09 12:13:47;;;;;;;9.07;4.97;;;25.40;99.90;;;;;;5035593;28;20524;-59
2023/06/09 12:16:13;;;;;;;11.68;5.32;;;25.40;99.90;;;;;;5035617;28;20022;-58
2023/06/09 12:18:39;;;;;;;9.20;5.18;;;25.40;99.90;;;;;;5034988;28;20022;-59
2023/06/09 12:21:05;;;;;;;15.05;6.22;;;25.40;99.90;;;;;;5035353;28;20115;-59
2023/06/09 12:23:32;;;;;;;12.10;5.30;;;25.40;99.90;;;;;;5035135;28;20029;-59
2023/06/09 12:26:05;;;;;;;12.85;6.07;;;25.50;99.90;;;;;;5033533;28;20029;-59
2023/06/09 12:28:31;;;;;;;12.45;5.75;;;25.50;99.90;;;;;;5035219;28;20033;-58
2023/06/09 12:31:10;;;;;;;9.50;5.47;;;25.50;99.90;;;;;;5034966;28;20525;-59
2023/06/09 12:33:36;;;;;;;9.82;5.80;;;25.50;99.90;;;;;;5035179;28;20111;-59
2023/06/09 12:36:11;;;;;;;9.93;5.40;;;25.50;99.90;;;;;;5035264;28;20060;-59
2023/06/09 12:38:43;;;;;;;9.32;5.25;;;25.50;99.90;;;;;;5035298;28;20033;-59
2023/06/09 12:41:14;;;;;;;12.50;5.70;;;25.50;99.90;;;;;;5035156;28;20022;-59
2023/06/09 12:43:58;;;;;;;14.30;5.72;;;25.50;99.90;;;;;;5034999;28;20417;-59
2023/06/09 12:46:27;;;;;;;9.98;5.38;;;25.50;99.90;;;;;;5033920;28;20026;-58
2023/06/09 12:49:03;;;;;;;10.23;5.13;;;25.60;99.90;;;;;;5034906;28;20018;-58
2023/06/09 12:51:30;;;;;;;10.02;5.70;;;25.50;99.90;;;;;;5034849;28;20030;-58
2023/06/09 12:53:56;;;;;;;12.50;5.40;;;25.60;99.90;;;;;;5034730;28;20026;-58